Flight Track Log - Related Links

Times and Time Zones

All times are in EDT time to prevent confusion due to time zone crossing. See the UAL4843 flight status page for this flight to view local times or setup timezone preferences in your user account.

Time Position Orientation Groundspeed Altitude Reporting Facility
EDT Latitude Longitude Course Direction KTS MPH feet Rate Location/Type
Sat 02:33:22 PM 39.1833 -76.7333 301° West 146 168 2,100  Level Potomac TRACON
Sat 02:35:16 PM 39.2303 -76.8189 305° West 154 177 4,300 1,172 Climbing Washington Center
Sat 02:36:16 PM 39.2569 -76.8647 307° West 161 185 5,500 1,200 Climbing Washington Center
Sat 02:37:16 PM 39.2772 -76.9161 297° West 166 191 6,700 1,300 Climbing Washington Center
Sat 02:38:00 PM 39.3413 -77.0250 301° West  Level Estimated
Sat 02:38:16 PM 39.2889 -76.9753 284° West 166 191 8,100  Level Washington Center
Sat 02:39:16 PM 39.3050 -77.0267 292° West 166 191 9,600 1,200 Climbing Washington Center
Sat 02:40:16 PM 39.3147 -77.0803 283° West 161 185 10,500 950 Climbing Washington Center
Sat 02:41:16 PM 39.3286 -77.1317 289° West 161 185 11,500 950 Climbing Washington Center
Sat 02:42:16 PM 39.3447 -77.1831 292° West 161 185 12,400 850 Climbing Washington Center
Sat 02:43:16 PM 39.3711 -77.2344 304° West 161 185 13,200 750 Climbing Washington Center
Sat 02:44:16 PM 39.3975 -77.2836 305° West 161 185 13,900 700 Climbing Washington Center
Sat 02:45:16 PM 39.4261 -77.3353 306° West 173 199 14,600 700 Climbing Washington Center
Sat 02:46:16 PM 39.4544 -77.3869 305° West 173 199 15,300 700 Climbing Washington Center
Sat 02:47:16 PM 39.4850 -77.4414 306° West 178 205 16,000 800 Climbing Washington Center
Sat 02:48:16 PM 39.5133 -77.4933 305° West 178 205 16,900 671 Climbing Washington Center
Sat 02:49:57 PM 39.5628 -77.5833 305° West 174 200 17,800 559 Climbing Cleveland Center
Sat 02:50:57 PM 39.5933 -77.6358 307° West 174 200 18,400 600 Climbing Cleveland Center
Sat 02:51:57 PM 39.6197 -77.6886 303° West 174 200 19,000 650 Climbing Cleveland Center
Sat 02:52:57 PM 39.6481 -77.7414 305° West 174 200 19,700 500 Climbing Cleveland Center
Sat 02:53:57 PM 39.6786 -77.7939 307° West 174 200 20,000 150 Climbing Cleveland Center
Sat 02:54:57 PM 39.7114 -77.8519 306° West 186 214 20,000  Level Cleveland Center
Sat 02:55:57 PM 39.7419 -77.9156 302° West 198 228 20,000  Level Cleveland Center
Sat 02:56:57 PM 39.7789 -77.9817 306° West 208 239 20,000  Level Cleveland Center
Sat 02:57:57 PM 39.8117 -78.0481 303° West 213 245 20,000  Level Cleveland Center
Sat 02:58:57 PM 39.8486 -78.1114 307° West 213 245 20,000  Level Cleveland Center
Sat 02:59:57 PM 39.8853 -78.1750 307° West 213 245 20,000  Level Cleveland Center
Sat 03:00:57 PM 39.9219 -78.2361 308° West 218 251 20,000  Level Cleveland Center
Sat 03:01:57 PM 39.9483 -78.2947 300° West 213 245 20,000  Level Cleveland Center
Sat 03:02:57 PM 39.9828 -78.3558 306° West 208 239 20,000  Level Cleveland Center
Sat 03:03:57 PM 40.0194 -78.4169 308° West 208 239 20,000  Level Cleveland Center
Sat 03:04:57 PM 40.0561 -78.4783 308° West 208 239 20,000  Level Cleveland Center
Sat 03:05:57 PM 40.0906 -78.5422 305° West 215 247 20,000  Level Cleveland Center
Sat 03:06:57 PM 40.1250 -78.6011 307° West 215 247 20,000  Level Cleveland Center
Sat 03:07:57 PM 40.1594 -78.6653 305° West 215 247 20,000  Level Cleveland Center
Sat 03:08:57 PM 40.1939 -78.7294 305° West 215 247 20,000  Level Cleveland Center
Sat 03:09:57 PM 40.2325 -78.7908 309° West 215 247 20,000  Level Cleveland Center
Sat 03:10:57 PM 40.2689 -78.8525 308° West 215 247 20,000  Level Cleveland Center
Sat 03:11:57 PM 40.3031 -78.9197 304° West 215 247 20,000  Level Cleveland Center
Sat 03:12:57 PM 40.3372 -78.9814 306° West 215 247 20,000  Level Cleveland Center
Sat 03:13:57 PM 40.3736 -79.0433 308° West 215 247 20,000  Level Cleveland Center
Sat 03:14:57 PM 40.4078 -79.1053 306° West 215 247 20,000  Level Cleveland Center
Sat 03:15:57 PM 40.4419 -79.1672 306° West 215 247 20,000  Level Cleveland Center
Sat 03:16:57 PM 40.4761 -79.2292 306° West 215 247 20,000  Level Cleveland Center
Sat 03:17:57 PM 40.5122 -79.2942 306° West 215 247 20,000  Level Cleveland Center
Sat 03:18:57 PM 40.5483 -79.3564 307° West 215 247 20,000  Level Cleveland Center
Sat 03:19:57 PM 40.5867 -79.4239 307° West 215 247 20,000  Level Cleveland Center
Sat 03:20:57 PM 40.6206 -79.4861 306° West 215 247 20,000  Level Cleveland Center
Sat 03:21:57 PM 40.6525 -79.5486 304° West 215 247 20,000  Level Cleveland Center
Sat 03:22:57 PM 40.6864 -79.6111 306° West 215 247 20,000  Level Cleveland Center
Sat 03:23:57 PM 40.7389 -79.6542 328° Northwest 215 247 20,000  Level Cleveland Center
Sat 03:24:57 PM 40.8058 -79.6861 340° North 232 267 20,000  Level Cleveland Center
Sat 03:25:57 PM 40.8686 -79.7211 337° Northwest 238 274 20,000  Level Cleveland Center
Sat 03:26:57 PM 40.9356 -79.7531 340° North 245 282 20,000  Level Cleveland Center
Sat 03:27:57 PM 41.0003 -79.7853 339° North 250 288 20,000  Level Cleveland Center
Sat 03:28:57 PM 41.0653 -79.8175 340° North 250 288 20,000 -250 Level Cleveland Center
Sat 03:29:57 PM 41.1175 -79.8472 337° Northwest 250 288 19,500 -750 Descending Cleveland Center
Sat 03:30:57 PM 41.1867 -79.8989 331° Northwest 256 295 18,500 -850 Descending Cleveland Center
Sat 03:31:57 PM 41.2142 -79.9786 295° West 235 270 17,800 -850 Descending Cleveland Center
Sat 03:32:57 PM 41.2375 -80.0639 290° West 229 264 16,800 -950 Descending Cleveland Center
Sat 03:33:57 PM 41.2567 -80.1439 288° West 229 264 15,900 -450 Descending Cleveland Center
Sat 03:34:57 PM 41.2778 -80.2239 289° West 229 264 15,900 -150 Level Cleveland Center
Sat 03:35:57 PM 41.2967 -80.2986 289° West 224 258 15,600 -350 Descending Cleveland Center
Sat 03:36:57 PM 41.3136 -80.3758 286° West 224 258 15,200 -500 Descending Cleveland Center
Sat 03:37:57 PM 41.3367 -80.4531 292° West 224 258 14,600 -600 Descending Cleveland Center
Sat 03:38:57 PM 41.3575 -80.5306 290° West 224 258 14,000 -700 Descending Cleveland Center
Sat 03:39:57 PM 41.3764 -80.6081 288° West 224 258 13,200 -750 Descending Cleveland Center
Sat 03:40:57 PM 41.3950 -80.6883 287° West 224 258 12,500 -700 Descending Cleveland Center
Sat 03:41:57 PM 41.4158 -80.7658 290° West 224 258 11,800 -700 Descending Cleveland Center
Sat 03:42:57 PM 41.4344 -80.8461 287° West 224 258 11,100 -700 Descending Cleveland Center
Sat 03:43:57 PM 41.4550 -80.9211 290° West 224 258 10,400 -700 Descending Cleveland Center
Sat 03:44:57 PM 41.4736 -81.0017 287° West 224 258 9,700 -641 Descending Cleveland Center
Sat 03:46:08 PM 41.4836 -81.0931 278° West 213 245 9,000 -333 Descending Cleveland Center
Sat 03:47:03 PM 41.4894 -81.1625 276° West 211 243 9,000 -330 Level Cleveland Center
Sat 03:47:57 PM 41.4953 -81.2264 277° West 219 252 8,400 -947 Descending Cleveland Center
Sat 03:48:57 PM 41.4992 -81.3094 274° West 219 252 7,200 -1,150 Descending Cleveland Center
Sat 03:49:57 PM 41.5069 -81.3872 278° West 214 246 6,100 -600 Descending Cleveland Center
Sat 03:50:57 PM 41.5167 -81.4650 280° West 219 252 6,000 -300 Descending Cleveland Center
Sat 03:51:17 PM 41.5206 -81.5039 278° West 215 247 5,700 -800 Descending Cleveland Center
Sat 03:51:57 PM 41.5244 -81.5428 278° West 219 252 5,200 -873 Descending Cleveland Center
Sat 03:52:12 PM 41.5283 -81.5706 281° West 205 236 4,900 -1,000 Descending Cleveland Center
Sat 03:52:57 PM 41.5342 -81.6178 279° West 214 246 4,200 -971 Descending Cleveland Center
Sat 03:53:57 PM 41.5169 -81.6897 252° West 209 241 3,200 -700 Descending Cleveland Center
Sat 03:54:57 PM 41.4789 -81.7444 227° Southwest 204 235 2,800 -720 Descending Cleveland Center
Sat 03:56:02 PM 41.4447 -81.8019 232° Southwest 152 175 1,700 -1,015 Descending Cleveland Center
Sat 03:58:00 PM 41.4000 -81.8500 255° West  Level FlightAware Approximate
Sat 04:05:00 PM 41.4094 -81.8547 255° West  Level Estimated

Login

Don't have an account? Register now (free) for customized features, flight alerts, and more!